Time;durP1;ratioP1;P1;durP2;ratioP2;P2;SDS_P1;SDS_P2;PMS_P1;PMS_P2;Temp;Humidity;BMP_temperature;BMP_pressure;BME280_temperature;BME280_humidity;BME280_pressure;Samples;Min_cycle;Max_cycle;Signal;HPM_P1;HPM_P2
2022/05/10 00:02:23;;;;;;;7.25;3.63;;;;;;;16.18;81.26;99140.22;5015850;28;20503;-59
2022/05/10 00:04:51;;;;;;;7.28;3.55;;;;;;;16.18;81.35;99144.66;5021057;28;20028;-59
2022/05/10 00:07:17;;;;;;;7.15;4.40;;;;;;;16.04;81.51;99133.03;5020429;28;20122;-59
2022/05/10 00:09:43;;;;;;;6.32;3.50;;;;;;;16.06;81.20;99137.13;5020215;28;20037;-59
2022/05/10 00:12:09;;;;;;;7.00;3.58;;;;;;;16.02;81.64;99138.44;5020309;28;20108;-60
2022/05/10 00:14:35;;;;;;;5.40;3.50;;;;;;;15.91;82.36;99129.09;5002625;28;20033;-60
2022/05/10 00:17:01;;;;;;;6.75;3.50;;;;;;;15.99;80.97;99144.03;5021575;28;20814;-59
2022/05/10 00:19:27;;;;;;;7.25;3.80;;;;;;;15.92;82.55;99135.19;5004764;28;20021;-59
2022/05/10 00:21:53;;;;;;;7.95;3.80;;;;;;;15.89;82.40;99132.91;5022304;28;20638;-59
2022/05/10 00:24:19;;;;;;;5.97;3.70;;;;;;;15.84;83.06;99133.38;5021531;28;20022;-60
2022/05/10 00:26:44;;;;;;;6.10;3.78;;;;;;;15.81;83.32;99132.88;5022676;28;20546;-59
2022/05/10 00:29:10;;;;;;;6.20;3.35;;;;;;;15.90;80.91;99132.72;5017603;28;20033;-58
2022/05/10 00:31:35;;;;;;;5.97;3.42;;;;;;;15.88;80.70;99126.84;5018866;28;20041;-59
2022/05/10 00:34:01;;;;;;;6.57;3.45;;;;;;;15.92;80.74;99141.25;5021779;28;21004;-59
2022/05/10 00:36:27;;;;;;;8.38;4.00;;;;;;;15.90;80.18;99131.91;5021745;28;20057;-58
2022/05/10 00:38:53;;;;;;;6.38;3.30;;;;;;;15.66;80.47;99090.78;5021124;28;20072;-59
2022/05/10 00:41:34;;;;;;;5.57;3.53;;;;;;;15.84;81.58;99130.75;5021755;28;20464;-59
2022/05/10 00:44:06;;;;;;;5.80;3.47;;;;;;;15.84;81.29;99127.31;5005048;28;20032;-61
2022/05/10 00:46:38;;;;;;;7.93;3.55;;;;;;;15.75;82.86;99126.50;5023131;28;20033;-59
2022/05/10 00:49:22;;;;;;;5.90;3.22;;;;;;;15.72;83.47;99137.31;5032312;28;20113;-59
2022/05/10 00:52:06;;;;;;;8.73;4.90;;;;;;;15.59;83.98;99137.81;5021159;28;20395;-59
2022/05/10 00:54:39;;;;;;;6.03;4.00;;;;;;;15.47;85.13;99134.69;5023474;28;20069;-59
2022/05/10 00:57:26;;;;;;;6.10;3.40;;;;;;;15.49;84.46;99137.13;5010362;28;20468;-59
2022/05/10 01:00:09;;;;;;;6.00;3.53;;;;;;;15.52;83.99;99135.00;5014828;28;20383;-59
2022/05/10 01:02:39;;;;;;;6.80;3.67;;;;;;;15.58;83.29;99136.16;5021609;28;20018;-59
2022/05/10 01:05:32;;;;;;;6.55;3.20;;;;;;;15.37;83.74;99120.94;5021282;28;20056;-59
2022/05/10 01:08:16;;;;;;;6.35;3.35;;;;;;;15.43;84.21;99127.31;5018857;28;20037;-59
2022/05/10 01:10:51;;;;;;;5.63;3.20;;;;;;;15.43;83.80;99137.81;5013353;28;20033;-60
2022/05/10 01:13:25;;;;;;;8.45;3.92;;;;;;;15.46;84.04;99129.59;5022273;28;20017;-60
2022/05/10 01:16:15;;;;;;;5.63;3.45;;;;;;;15.33;85.38;99137.94;5022047;28;20106;-59
2022/05/10 01:18:41;;;;;;;6.32;3.05;;;;;;;15.11;85.26;99098.31;5019899;28;20312;-59
2022/05/10 01:21:22;;;;;;;6.40;3.78;;;;;;;15.29;84.69;99119.09;5021815;28;20731;-60
2022/05/10 01:24:11;;;;;;;5.68;3.60;;;;;;;15.29;84.82;99134.00;5022658;28;20032;-59
2022/05/10 01:27:02;;;;;;;6.40;3.40;;;;;;;15.27;85.25;99135.97;5021489;28;20069;-59
2022/05/10 01:29:33;;;;;;;6.07;3.25;;;;;;;15.06;84.97;99094.53;5020377;28;20319;-63
2022/05/10 01:34:47;;;;;;;5.20;3.20;;;;;;;15.26;84.60;99136.94;5021249;28;20043;-59
2022/05/10 01:37:14;;;;;;;5.78;3.47;;;;;;;15.21;85.07;99131.41;5020333;28;20064;-59
2022/05/10 01:39:47;;;;;;;6.20;3.40;;;;;;;15.24;84.91;99136.28;5021019;28;20018;-60
2022/05/10 01:42:22;;;;;;;7.22;3.70;;;;;;;15.19;83.55;99105.38;5019427;28;20587;-60
2022/05/10 01:44:55;;;;;;;6.25;3.25;;;;;;;15.31;83.53;99129.44;5003583;28;20075;-59
2022/05/10 01:47:47;;;;;;;7.20;3.55;;;;;;;15.33;82.56;99123.06;5021049;28;20807;-58
2022/05/10 01:50:39;;;;;;;5.70;2.90;;;;;;;15.37;82.45;99134.03;4997775;28;20021;-61
2022/05/10 01:53:08;;;;;;;6.50;3.08;;;;;;;15.34;82.84;99122.06;5027439;28;20026;-60
2022/05/10 01:55:35;;;;;;;5.75;3.20;;;;;;;15.10;82.25;99086.19;5019359;28;20044;-60
2022/05/10 01:58:23;;;;;;;5.65;2.90;;;;;;;15.30;83.02;99130.44;5014061;28;20018;-61
2022/05/10 02:00:55;;;;;;;5.47;2.88;;;;;;;15.31;82.59;99132.03;5015552;28;20025;-59
2022/05/10 02:03:42;;;;;;;5.47;3.38;;;;;;;15.29;82.50;99121.72;5004140;28;20100;-60
2022/05/10 02:06:20;;;;;;;5.90;3.65;;;;;;;15.23;82.77;99132.88;5016199;28;20060;-59
2022/05/10 02:09:03;;;;;;;5.80;3.10;;;;;;;15.08;82.24;99098.63;5020883;28;20030;-60
2022/05/10 02:11:28;;;;;;;5.60;3.38;;;;;;;15.30;82.30;99125.19;5009215;28;20036;-60
2022/05/10 02:14:10;;;;;;;5.75;3.25;;;;;;;15.24;82.70;99124.03;5015151;28;20026;-59
2022/05/10 02:16:41;;;;;;;6.13;3.10;;;;;;;14.92;82.22;99072.44;5041862;28;20570;-61
2022/05/10 02:19:13;;;;;;;7.07;3.22;;;;;;;15.23;82.41;99124.19;5017728;28;20403;-60
2022/05/10 02:21:48;;;;;;;8.18;3.10;;;;;;;15.14;81.81;99116.31;5004679;28;20060;-61
2022/05/10 02:24:24;;;;;;;5.95;3.45;;;;;;;15.20;82.28;99120.09;5010535;28;20030;-60
2022/05/10 02:27:03;;;;;;;5.18;3.08;;;;;;;15.13;82.67;99121.72;5019640;28;20028;-60
2022/05/10 02:29:45;;;;;;;6.07;3.35;;;;;;;15.09;82.79;99121.22;5008120;28;20033;-58
2022/05/10 02:35:11;;;;;;;;;;;;;;;15.02;82.21;99108.94;5025240;28;20044;-59
2022/05/10 02:37:37;;;;;;;5.85;3.00;;;;;;;14.98;82.41;99117.09;5018110;28;19999;-59
2022/05/10 02:40:04;;;;;;;5.70;2.60;;;;;;;14.87;83.16;99106.94;5022701;28;20359;-59
2022/05/10 02:42:30;;;;;;;5.60;2.70;;;;;;;14.89;82.40;99112.81;5007196;28;20420;-59
2022/05/10 02:44:56;;;;;;;4.55;2.60;;;;;;;14.94;81.63;99130.69;4998130;28;20029;-61
2022/05/10 02:47:37;;;;;;;5.72;2.75;;;;;;;14.70;82.11;99090.38;5006672;28;20472;-59
2022/05/10 02:50:08;;;;;;;4.70;2.70;;;;;;;14.83;82.54;99125.75;5048883;28;20030;-61
2022/05/10 02:52:34;;;;;;;6.13;2.90;;;;;;;14.76;83.84;99102.81;5024395;28;20032;-59
2022/05/10 02:55:08;;;;;;;5.07;2.70;;;;;;;14.81;83.36;99112.81;5022823;28;20030;-62
2022/05/10 02:57:34;;;;;;;6.95;2.60;;;;;;;14.84;83.83;99114.28;5021987;28;20052;-58
2022/05/10 03:00:03;;;;;;;4.70;2.72;;;;;;;14.71;84.45;99104.25;5023407;28;20108;-59
2022/05/10 03:02:35;;;;;;;5.75;2.78;;;;;;;14.71;84.82;99109.50;5021198;28;20032;-60
2022/05/10 03:05:00;;;;;;;8.52;4.05;;;;;;;14.70;84.66;99110.50;5020337;28;20076;-59
2022/05/10 03:07:27;;;;;;;6.53;2.80;;;;;;;14.40;83.79;99065.53;5019731;28;20017;-60
2022/05/10 03:09:53;;;;;;;5.90;2.55;;;;;;;14.60;82.60;99076.59;5023401;28;20388;-60
2022/05/10 03:12:18;;;;;;;5.13;2.70;;;;;;;14.43;83.38;99066.03;5023600;28;20034;-58
2022/05/10 03:14:44;;;;;;;5.63;2.45;;;;;;;14.73;83.87;99110.16;5021943;28;20025;-60
2022/05/10 03:17:10;;;;;;;5.00;2.60;;;;;;;14.55;82.64;99071.81;5023535;28;20371;-60
2022/05/10 03:19:40;;;;;;;5.00;2.70;;;;;;;14.86;81.50;99110.53;5021941;28;20140;-59
2022/05/10 03:22:05;;;;;;;6.80;2.72;;;;;;;14.73;82.68;99103.16;5022968;28;20021;-60
2022/05/10 03:24:31;;;;;;;6.75;2.90;;;;;;;14.72;82.39;99100.69;5020087;28;20134;-60
2022/05/10 03:26:58;;;;;;;8.10;2.83;;;;;;;14.74;83.22;99115.25;5020243;28;20025;-59
2022/05/10 03:29:25;;;;;;;5.75;2.50;;;;;;;14.75;82.72;99116.91;5006186;28;20120;-60
2022/05/10 03:31:51;;;;;;;4.60;2.30;;;;;;;14.46;83.04;99091.09;5018670;28;20076;-59
2022/05/10 03:35:02;;;;;;;8.85;5.03;;;;;;;14.42;83.36;99084.53;5025539;28;20028;-61
2022/05/10 03:37:03;;;;;;;5.60;2.92;;;;;;;14.58;84.40;99115.19;5024421;28;20149;-60
2022/05/10 03:39:28;;;;;;;5.68;2.80;;;;;;;14.33;85.44;99080.22;5022043;28;20120;-59
2022/05/10 03:41:53;;;;;;;5.90;2.85;;;;;;;14.53;85.88;99117.41;5018550;28;20056;-58
2022/05/10 03:44:19;;;;;;;5.15;2.63;;;;;;;14.51;85.77;99125.44;5020551;28;20384;-59
2022/05/10 03:46:45;;;;;;;5.35;2.80;;;;;;;14.56;85.34;99117.91;5015567;28;20032;-58
2022/05/10 03:49:10;;;;;;;5.22;3.08;;;;;;;14.48;85.76;99101.41;5026735;28;20026;-60
2022/05/10 03:51:36;;;;;;;5.18;2.97;;;;;;;14.60;84.92;99118.47;5043879;28;20425;-62
2022/05/10 03:54:01;;;;;;;4.93;2.92;;;;;;;14.54;85.08;99119.88;5023097;28;20029;-62
2022/05/10 03:56:27;;;;;;;5.72;2.70;;;;;;;14.64;84.24;99111.13;5018053;28;20026;-62
2022/05/10 03:58:52;;;;;;;5.35;2.60;;;;;;;14.64;84.20;99111.13;5005947;28;20104;-59
2022/05/10 04:01:19;;;;;;;6.47;2.50;;;;;;;14.58;83.61;99113.41;5020746;28;20029;-59
2022/05/10 04:03:44;;;;;;;5.88;2.60;;;;;;;14.57;84.71;99116.16;5022499;28;20400;-59
2022/05/10 04:06:10;;;;;;;6.65;3.17;;;;;;;14.58;84.78;99102.94;5024118;28;20044;-60
2022/05/10 04:08:36;;;;;;;5.20;2.80;;;;;;;14.58;84.84;99109.94;5048412;28;20045;-62
2022/05/10 04:11:04;;;;;;;7.65;3.25;;;;;;;14.33;84.77;99078.44;5023825;28;20073;-59
2022/05/10 04:13:29;;;;;;;6.35;3.00;;;;;;;14.51;85.63;99104.53;5020815;28;20037;-60
2022/05/10 04:15:55;;;;;;;5.40;2.72;;;;;;;14.45;85.01;99092.03;5028877;28;20029;-59
2022/05/10 04:18:21;;;;;;;5.25;2.70;;;;;;;14.52;85.08;99097.47;5020520;28;20033;-60
2022/05/10 04:20:46;;;;;;;5.18;2.75;;;;;;;14.48;85.18;99086.50;5022554;28;20104;-61
2022/05/10 04:23:11;;;;;;;4.85;2.60;;;;;;;14.49;85.03;99087.31;5016994;28;20542;-63
2022/05/10 04:25:37;;;;;;;5.47;2.90;;;;;;;14.39;85.50;99085.66;5032516;28;20464;-60
2022/05/10 04:28:04;;;;;;;5.00;2.63;;;;;;;14.37;84.89;99094.66;5019858;28;20022;-59
2022/05/10 04:30:30;;;;;;;6.10;2.42;;;;;;;14.48;84.81;99096.16;5020300;28;20021;-60
2022/05/10 04:32:55;;;;;;;6.25;2.70;;;;;;;14.53;84.79;99097.31;5005581;28;20361;-60
2022/05/10 04:35:21;;;;;;;5.55;3.03;;;;;;;14.27;84.71;99055.50;5017636;28;20052;-60
2022/05/10 04:37:46;;;;;;;5.65;2.95;;;;;;;14.39;85.22;99090.88;5021363;28;20052;-59
2022/05/10 04:42:56;;;;;;;5.38;2.70;;;;;;;14.34;86.30;99101.00;5018515;28;20136;-59
2022/05/10 04:45:22;;;;;;;6.60;2.90;;;;;;;14.39;85.85;99103.97;5017277;28;20408;-63
2022/05/10 04:47:47;;;;;;;6.00;2.97;;;;;;;14.36;86.01;99101.66;5018357;28;20423;-60
2022/05/10 04:50:13;;;;;;;6.85;2.92;;;;;;;14.12;85.63;99057.91;5014817;28;20037;-59
2022/05/10 04:52:39;;;;;;;5.50;2.67;;;;;;;14.43;83.83;99107.09;5005586;28;20033;-60
2022/05/10 04:55:08;;;;;;;5.28;2.80;;;;;;;14.48;82.39;99104.00;5012437;28;22010;-61
2022/05/10 04:57:35;;;;;;;6.03;2.92;;;;;;;14.55;82.38;99115.50;4995500;28;20164;-59
2022/05/10 05:00:00;;;;;;;4.72;2.50;;;;;;;14.50;82.11;99112.53;5013496;28;20029;-60
2022/05/10 05:02:26;;;;;;;5.63;2.88;;;;;;;14.55;81.43;99116.31;5015077;28;20330;-59
2022/05/10 05:04:51;;;;;;;5.88;2.50;;;;;;;14.25;81.80;99078.41;5012739;28;20113;-59
2022/05/10 05:07:16;;;;;;;4.80;2.40;;;;;;;14.46;82.97;99129.53;5007261;28;20022;-59
2022/05/10 05:09:43;;;;;;;5.20;2.53;;;;;;;14.38;83.73;99120.66;5016955;28;20037;-58
2022/05/10 05:12:10;;;;;;;5.13;2.53;;;;;;;14.41;83.43;99136.03;5000901;28;20033;-58
2022/05/10 05:14:35;;;;;;;5.35;2.53;;;;;;;14.31;84.10;99121.41;5016651;28;20159;-60
2022/05/10 05:17:00;;;;;;;4.95;2.58;;;;;;;14.29;84.00;99123.38;5012911;28;20687;-58
2022/05/10 05:19:26;;;;;;;5.65;2.65;;;;;;;14.20;84.39;99115.50;4998924;28;20064;-59
2022/05/10 05:21:51;;;;;;;5.50;2.63;;;;;;;14.02;84.13;99067.69;4971175;28;21531;-59
2022/05/10 05:24:17;;;;;;;5.53;2.50;;;;;;;14.36;83.80;99124.38;5012409;28;20587;-60
2022/05/10 05:26:42;;;;;;;4.75;2.30;;;;;;;14.27;83.53;99123.50;5015088;28;20348;-60
2022/05/10 05:29:08;;;;;;;6.57;2.92;;;;;;;14.27;83.58;99123.50;5011532;28;20051;-60
2022/05/10 05:31:33;;;;;;;6.63;2.50;;;;;;;13.82;83.94;99048.78;5016833;28;20045;-60
2022/05/10 05:33:59;;;;;;;4.47;2.47;;;;;;;14.25;84.23;99133.31;5018328;28;20109;-61
2022/05/10 05:36:24;;;;;;;6.00;2.78;;;;;;;14.20;84.23;99120.72;5002909;28;20128;-61
2022/05/10 05:38:50;;;;;;;6.82;2.55;;;;;;;14.35;82.88;99128.00;5019839;28;20029;-60
2022/05/10 05:41:19;;;;;;;4.55;2.58;;;;;;;14.39;83.09;99130.13;5018871;28;20362;-59
2022/05/10 05:43:45;;;;;;;6.32;2.90;;;;;;;14.17;83.98;99094.06;5016952;28;20028;-59
2022/05/10 05:46:11;;;;;;;5.75;2.63;;;;;;;14.30;84.22;99117.19;5019911;28;20037;-60
2022/05/10 05:48:37;;;;;;;7.05;2.63;;;;;;;14.27;85.53;99117.47;5019281;28;20037;-58
2022/05/10 05:51:02;;;;;;;6.05;2.80;;;;;;;14.31;85.15;99118.78;5028639;28;20065;-60
2022/05/10 05:53:28;;;;;;;5.55;2.33;;;;;;;14.37;83.46;99119.00;5015322;28;20033;-60
2022/05/10 05:56:10;;;;;;;5.28;2.60;;;;;;;14.42;82.43;99121.97;5013436;28;20813;-60
2022/05/10 05:58:37;;;;;;;5.43;2.38;;;;;;;14.53;82.18;99123.50;5019434;28;20459;-60
2022/05/10 06:01:10;;;;;;;4.35;2.10;;;;;;;14.59;80.92;99114.22;5019319;28;20021;-60
2022/05/10 06:03:35;;;;;;;5.70;2.55;;;;;;;14.54;79.86;99106.00;5022589;28;20646;-60
2022/05/10 06:06:01;;;;;;;4.43;2.17;;;;;;;14.65;79.53;99107.53;5025542;28;20132;-60
2022/05/10 06:08:26;;;;;;;4.65;2.45;;;;;;;14.70;79.19;99113.94;5004712;28;20021;-60
2022/05/10 06:10:52;;;;;;;5.25;2.25;;;;;;;14.54;78.88;99090.28;5024545;28;20064;-60
2022/05/10 06:13:20;;;;;;;5.00;2.55;;;;;;;14.72;79.15;99111.97;5020697;28;20459;-59
2022/05/10 06:15:46;;;;;;;5.00;2.42;;;;;;;14.80;78.52;99109.38;5025395;28;20037;-60
2022/05/10 06:18:11;;;;;;;5.55;2.30;;;;;;;14.72;78.62;99111.97;5020825;28;20022;-60
2022/05/10 06:20:37;;;;;;;4.85;2.35;;;;;;;14.76;78.48;99115.91;5025286;28;20033;-60
2022/05/10 06:23:04;;;;;;;5.13;2.45;;;;;;;14.70;78.23;99119.16;5025230;28;20026;-59
2022/05/10 06:25:29;;;;;;;5.25;2.42;;;;;;;14.75;78.56;99116.09;5023524;28;20025;-60
2022/05/10 06:27:56;;;;;;;4.70;2.28;;;;;;;14.85;77.37;99119.38;5024393;28;20043;-59
2022/05/10 06:30:22;;;;;;;4.78;1.80;;;;;;;14.92;75.71;99117.75;5024270;28;20614;-60
2022/05/10 06:32:49;;;;;;;5.38;2.25;;;;;;;14.93;74.78;99105.47;5026489;28;20021;-59
2022/05/10 06:35:16;;;;;;;6.70;2.20;;;;;;;15.03;75.00;99107.97;5022708;28;20021;-59
2022/05/10 06:40:25;;;;;;;4.95;2.20;;;;;;;15.08;74.27;99110.91;5025763;28;20044;-60
2022/05/10 06:42:51;;;;;;;4.70;2.50;;;;;;;15.13;76.16;99112.06;5023352;28;20026;-60
2022/05/10 06:45:18;;;;;;;5.75;2.33;;;;;;;15.06;78.76;99108.47;5007923;28;20065;-59
2022/05/10 06:47:46;;;;;;;4.93;2.40;;;;;;;15.12;76.09;99112.22;5003746;28;20112;-59
2022/05/10 06:50:14;;;;;;;4.95;1.98;;;;;;;15.18;74.18;99103.72;5023872;28;20030;-59
2022/05/10 06:52:40;;;;;;;4.55;2.35;;;;;;;15.26;73.96;99110.75;5024241;28;20021;-59
2022/05/10 06:55:07;;;;;;;4.45;2.10;;;;;;;15.27;74.67;99112.41;5022875;28;20029;-60
2022/05/10 06:57:32;;;;;;;4.65;2.53;;;;;;;15.27;76.47;99110.59;5006855;28;20033;-59
2022/05/10 06:59:57;;;;;;;5.47;2.60;;;;;;;15.21;77.42;99111.25;5025001;28;20033;-59
2022/05/10 07:02:24;;;;;;;7.30;2.83;;;;;;;15.16;76.45;99109.09;5024072;28;20495;-59
2022/05/10 07:04:50;;;;;;;5.57;2.30;;;;;;;15.15;74.25;99094.38;5023552;28;20087;-59
2022/05/10 07:07:16;;;;;;;5.95;2.40;;;;;;;15.28;74.17;99103.56;5024593;28;20041;-60
2022/05/10 07:09:42;;;;;;;4.60;2.22;;;;;;;15.19;77.44;99106.16;5023101;28;20018;-60
2022/05/10 07:12:07;;;;;;;4.88;2.45;;;;;;;15.18;78.58;99116.81;5019565;28;20033;-59
2022/05/10 07:14:33;;;;;;;6.03;2.60;;;;;;;14.87;78.77;99065.03;5023389;28;20029;-59
2022/05/10 07:16:58;;;;;;;4.97;2.17;;;;;;;15.30;73.98;99106.84;5006186;28;20505;-59
2022/05/10 07:19:24;;;;;;;4.82;2.42;;;;;;;15.34;74.20;99103.72;5024604;28;20033;-59
2022/05/10 07:21:52;;;;;;;4.65;2.33;;;;;;;15.46;73.91;99113.88;5022249;28;20017;-60
2022/05/10 07:24:19;;;;;;;5.55;2.20;;;;;;;15.45;76.03;99118.31;5010342;28;20144;-60
2022/05/10 07:26:45;;;;;;;7.30;2.38;;;;;;;15.43;76.12;99117.66;5025304;28;20017;-59
2022/05/10 07:29:15;;;;;;;5.43;2.75;;;;;;;15.49;77.41;99119.59;5019069;28;20092;-59
2022/05/10 07:31:41;;;;;;;5.63;2.63;;;;;;;15.38;77.96;99112.88;5022826;28;20027;-60
2022/05/10 07:34:07;;;;;;;5.10;2.78;;;;;;;15.41;78.13;99117.00;5043507;28;20023;-60
2022/05/10 07:36:35;;;;;;;5.93;2.88;;;;;;;15.31;79.11;99111.09;5023841;28;20033;-61
2022/05/10 07:39:04;;;;;;;4.72;2.50;;;;;;;15.36;78.57;99108.81;5021199;28;20384;-59
2022/05/10 07:41:30;;;;;;;4.60;2.42;;;;;;;15.44;78.61;99113.22;5023248;28;20022;-60
2022/05/10 07:43:56;;;;;;;4.93;2.75;;;;;;;15.37;78.53;99092.94;5019617;28;20036;-59
2022/05/10 07:46:22;;;;;;;5.38;2.40;;;;;;;15.56;78.70;99109.28;5022969;28;20025;-60
2022/05/10 07:48:48;;;;;;;6.22;2.85;;;;;;;15.57;79.18;99105.72;5054907;28;20349;-59
2022/05/10 07:51:13;;;;;;;6.15;2.60;;;;;;;15.58;78.57;99109.94;5021899;28;20048;-59
2022/05/10 07:53:41;;;;;;;5.65;2.80;;;;;;;15.64;79.22;99111.09;5022933;28;20305;-60
2022/05/10 07:56:06;;;;;;;5.90;2.90;;;;;;;15.60;78.51;99099.31;5023572;28;20464;-60
2022/05/10 07:58:32;;;;;;;5.05;2.58;;;;;;;16.02;77.28;99114.03;5022726;28;20092;-60
2022/05/10 08:00:59;;;;;;;6.15;3.05;;;;;;;16.45;75.88;99110.13;5003528;28;20041;-60
2022/05/10 08:03:25;;;;;;;4.88;2.42;;;;;;;16.98;72.82;99117.44;5022068;28;20014;-60
2022/05/10 08:05:54;;;;;;;5.43;3.10;;;;;;;17.11;71.55;99088.78;5023018;28;20025;-60
2022/05/10 08:08:20;;;;;;;5.43;2.90;;;;;;;17.47;70.84;99075.03;5037144;28;20056;-60
2022/05/10 08:10:47;;;;;;;5.53;2.90;;;;;;;17.95;69.44;99116.84;5022816;28;20108;-59
2022/05/10 08:13:17;;;;;;;5.38;2.83;;;;;;;18.11;67.84;99100.91;5021919;28;20048;-59
2022/05/10 08:15:44;;;;;;;5.68;2.45;;;;;;;18.27;66.89;99101.69;5022715;28;20033;-60
2022/05/10 08:18:10;;;;;;;6.05;2.70;;;;;;;18.79;66.16;99095.47;5004028;28;20044;-60
2022/05/10 08:20:36;;;;;;;6.00;2.72;;;;;;;19.43;64.55;99107.06;5022154;28;20755;-60
2022/05/10 08:23:02;;;;;;;5.25;3.03;;;;;;;19.81;62.28;99093.59;5010649;28;20148;-60
2022/05/10 08:25:27;;;;;;;5.18;2.30;;;;;;;20.32;59.11;99104.63;5021297;28;20065;-60
2022/05/10 08:27:53;;;;;;;5.22;2.58;;;;;;;20.52;57.91;99103.91;5021934;28;20018;-61
2022/05/10 08:30:18;;;;;;;4.60;2.33;;;;;;;20.83;55.63;99078.84;5004576;28;20033;-60
2022/05/10 08:32:44;;;;;;;4.85;2.40;;;;;;;21.09;55.76;99063.03;5006427;28;20025;-60
2022/05/10 08:35:10;;;;;;;6.78;2.42;;;;;;;21.55;54.35;99092.38;5023496;28;20025;-60
2022/05/10 08:37:37;;;;;;;4.70;2.20;;;;;;;22.32;51.20;99097.97;5020180;28;20044;-61
2022/05/10 08:40:16;;;;;;;5.05;2.10;;;;;;;22.69;51.38;99066.41;5047876;28;20037;-61
2022/05/10 08:42:49;;;;;;;4.85;2.10;;;;;;;22.43;49.37;99065.50;5017479;28;20179;-60
2022/05/10 08:45:15;;;;;;;4.78;2.20;;;;;;;22.38;49.61;99084.69;5022692;28;20103;-60
2022/05/10 08:47:41;;;;;;;4.50;2.00;;;;;;;22.69;50.32;99092.91;5022469;28;20040;-60
2022/05/10 08:50:09;;;;;;;4.32;2.00;;;;;;;22.74;48.52;99083.28;5022243;28;20025;-60
2022/05/10 08:52:41;;;;;;;3.78;1.90;;;;;;;23.08;46.46;99083.13;5020302;28;20017;-60
2022/05/10 08:55:10;;;;;;;4.82;2.05;;;;;;;23.75;47.26;99070.94;5020994;28;20108;-60
2022/05/10 08:57:40;;;;;;;3.80;1.80;;;;;;;23.78;44.70;99085.63;5021287;28;20048;-60
2022/05/10 09:00:05;;;;;;;4.55;2.20;;;;;;;23.47;46.45;99071.38;5001552;28;20462;-60
2022/05/10 09:02:48;;;;;;;4.55;1.92;;;;;;;24.09;44.90;99070.63;5038369;28;20021;-60
2022/05/10 09:05:13;;;;;;;4.47;2.30;;;;;;;24.25;44.25;99059.41;5017187;28;20025;-60
2022/05/10 09:08:04;;;;;;;5.05;2.13;;;;;;;23.78;44.65;99059.91;5037269;28;20026;-60
2022/05/10 09:10:37;;;;;;;4.22;1.98;;;;;;;24.16;43.56;99055.41;5021130;28;20029;-60
2022/05/10 09:13:06;;;;;;;4.15;2.20;;;;;;;23.97;44.60;99020.91;5012497;28;20073;-61
2022/05/10 09:15:37;;;;;;;4.30;2.00;;;;;;;23.99;42.98;99015.38;5054248;28;20415;-60
2022/05/10 09:18:07;;;;;;;5.75;2.55;;;;;;;24.12;45.28;99011.75;5020780;28;20032;-61
2022/05/10 09:20:34;;;;;;;4.70;2.38;;;;;;;24.43;44.87;99042.63;5020550;28;20037;-60
2022/05/10 09:23:19;;;;;;;5.18;2.42;;;;;;;24.54;44.00;99041.09;5004906;28;20033;-60
2022/05/10 09:25:45;;;;;;;4.80;2.60;;;;;;;23.93;45.31;99001.13;5014072;28;20702;-60
2022/05/10 09:28:10;;;;;;;4.65;2.50;;;;;;;23.94;46.44;99034.63;5021729;28;20022;-60
2022/05/10 09:30:36;;;;;;;5.38;2.90;;;;;;;23.24;47.89;99032.22;5022882;28;20587;-60
2022/05/10 09:36:10;;;;;;;6.55;3.80;;;;;;;22.78;47.93;99023.53;5021497;28;20091;-61
2022/05/10 09:38:44;;;;;;;6.75;3.53;;;;;;;22.54;49.13;99019.78;5022314;28;20037;-60
2022/05/10 09:41:26;;;;;;;7.32;3.35;;;;;;;22.24;49.62;99011.56;5011557;28;20499;-60
2022/05/10 09:43:51;;;;;;;8.63;3.70;;;;;;;22.19;48.97;99019.34;5014675;28;20017;-61
2022/05/10 09:46:24;;;;;;;5.35;3.35;;;;;;;22.36;47.71;99014.38;5020544;28;20052;-60
2022/05/10 09:48:49;;;;;;;6.22;3.30;;;;;;;22.12;49.94;99018.53;5018225;28;20036;-60
2022/05/10 09:51:39;;;;;;;5.20;3.13;;;;;;;22.10;49.41;99012.66;5025337;28;20026;-59
2022/05/10 09:54:19;;;;;;;6.78;3.17;;;;;;;22.31;49.66;99008.94;5003215;28;20665;-60
2022/05/10 09:56:49;;;;;;;5.32;2.65;;;;;;;22.39;49.14;98996.22;5037647;28;20619;-59
2022/05/10 09:59:17;;;;;;;5.45;2.90;;;;;;;22.14;50.58;98997.97;5035325;28;20345;-59
2022/05/10 10:01:46;;;;;;;5.47;3.15;;;;;;;21.86;49.92;98999.88;5035880;28;20021;-60
2022/05/10 10:04:24;;;;;;;5.07;2.83;;;;;;;22.11;47.96;98985.16;5020311;28;20024;-60
2022/05/10 10:07:15;;;;;;;7.43;2.85;;;;;;;22.03;50.11;98996.78;5022220;28;20799;-59
2022/05/10 10:09:55;;;;;;;5.72;2.85;;;;;;;21.96;49.50;98988.88;5037601;28;20029;-60
2022/05/10 10:12:38;;;;;;;5.28;2.85;;;;;;;22.13;47.80;98991.84;5013391;28;20033;-59
2022/05/10 10:15:24;;;;;;;7.85;3.03;;;;;;;22.05;47.01;98984.97;5008626;28;20026;-61
2022/05/10 10:17:55;;;;;;;6.00;3.25;;;;;;;22.26;46.89;98978.56;5018002;28;20049;-59
2022/05/10 10:20:52;;;;;;;4.65;2.53;;;;;;;22.21;48.65;98981.00;5014166;28;20009;-60
2022/05/10 10:23:27;;;;;;;5.78;2.95;;;;;;;22.17;49.12;98982.47;5019417;28;20072;-60
2022/05/10 10:25:55;;;;;;;5.88;3.40;;;;;;;22.42;48.96;98984.41;5004333;28;20025;-60
2022/05/10 10:28:29;;;;;;;5.70;3.33;;;;;;;22.20;48.96;98983.91;5051377;28;20029;-59
2022/05/10 10:31:16;;;;;;;5.50;3.40;;;;;;;22.21;49.39;98977.56;5020951;28;20105;-60
2022/05/10 10:33:51;;;;;;;5.20;3.17;;;;;;;22.16;49.84;98977.38;5021841;28;20026;-61
2022/05/10 10:36:18;;;;;;;6.65;3.08;;;;;;;22.11;49.17;98970.06;5020006;28;20049;-60
2022/05/10 10:38:56;;;;;;;5.18;3.40;;;;;;;22.16;50.71;98970.25;5010933;28;20422;-59
2022/05/10 10:41:31;;;;;;;5.32;2.90;;;;;;;22.13;50.30;98968.03;5003620;28;20495;-60
2022/05/10 10:44:04;;;;;;;5.55;3.17;;;;;;;21.95;49.61;98926.34;5017126;28;20052;-61
2022/05/10 10:46:40;;;;;;;6.10;3.72;;;;;;;22.16;50.05;98961.47;5022095;28;20026;-60
2022/05/10 10:49:13;;;;;;;6.07;3.60;;;;;;;22.20;48.98;98970.66;5021335;28;20036;-59
2022/05/10 10:51:38;;;;;;;6.10;3.30;;;;;;;22.19;49.04;98961.88;5024324;28;20028;-59
2022/05/10 10:54:04;;;;;;;7.35;3.50;;;;;;;22.20;48.42;98962.72;5020968;28;20025;-59
2022/05/10 10:56:54;;;;;;;5.55;3.28;;;;;;;22.27;47.30;98966.97;5055614;28;20033;-60
2022/05/10 10:59:41;;;;;;;5.60;3.58;;;;;;;22.33;47.06;98965.31;4988162;28;20021;-60
2022/05/10 11:02:44;;;;;;;6.05;3.63;;;;;;;22.80;44.88;98959.72;5027221;28;20786;-59
2022/05/10 11:05:45;;;;;;;6.50;3.88;;;;;;;22.88;46.15;98954.13;4988022;28;20510;-59
2022/05/10 11:08:45;;;;;;;5.40;3.15;;;;;;;22.69;46.29;98950.63;5032871;28;20452;-59
2022/05/10 11:11:36;;;;;;;6.72;3.50;;;;;;;22.72;47.01;98949.38;5034880;28;20068;-60
2022/05/10 11:14:05;;;;;;;6.90;3.50;;;;;;;22.58;46.13;98944.16;5014783;28;20380;-59
2022/05/10 11:16:33;;;;;;;6.85;3.88;;;;;;;22.11;47.18;98911.03;5010446;28;20032;-60
2022/05/10 11:19:05;;;;;;;6.43;3.90;;;;;;;22.21;48.26;98941.28;5035536;28;20053;-59
2022/05/10 11:21:45;;;;;;;6.65;4.00;;;;;;;22.14;49.23;98942.34;5020985;28;20029;-60
2022/05/10 11:24:37;;;;;;;6.60;4.10;;;;;;;22.12;50.09;98941.75;5040411;28;20025;-60
2022/05/10 11:27:31;;;;;;;5.75;3.97;;;;;;;22.28;48.84;98938.63;5021101;28;20473;-59
2022/05/10 11:30:09;;;;;;;7.45;4.30;;;;;;;22.55;46.98;98933.19;4995938;28;20044;-60
2022/05/10 11:32:56;;;;;;;5.72;3.60;;;;;;;22.54;48.05;98929.69;5023094;28;20033;-59
2022/05/10 11:35:52;;;;;;;6.50;4.20;;;;;;;22.70;47.92;98933.66;5023414;28;20177;-59
2022/05/10 11:39:16;;;;;;;8.52;4.65;;;;;;;22.74;48.72;98929.56;5023697;28;20021;-59
2022/05/10 11:41:58;;;;;;;7.70;4.30;;;;;;;22.83;48.92;98922.97;4965330;28;20527;-58
2022/05/10 11:44:49;;;;;;;6.05;3.92;;;;;;;22.90;49.60;98919.47;5020817;28;20116;-58
2022/05/10 11:47:37;;;;;;;6.57;4.43;;;;;;;23.01;47.67;98924.03;5022821;28;20029;-58
2022/05/10 11:50:06;;;;;;;6.50;4.18;;;;;;;23.01;47.43;98919.53;5023818;28;20112;-59
2022/05/10 11:52:38;;;;;;;6.22;3.97;;;;;;;23.01;46.72;98921.38;5021992;28;20025;-59
2022/05/10 11:55:22;;;;;;;6.60;4.28;;;;;;;22.87;47.06;98874.81;5036192;28;20112;-59
2022/05/10 11:57:49;;;;;;;6.97;4.40;;;;;;;23.08;47.04;98902.81;5016674;28;20049;-59
2022/05/10 12:00:27;;;;;;;6.85;4.55;;;;;;;23.26;46.68;98912.63;5018617;28;20017;-58
2022/05/10 12:02:55;;;;;;;6.35;4.10;;;;;;;23.28;47.20;98897.31;5025298;28;20037;-59
2022/05/10 12:05:27;;;;;;;7.97;4.38;;;;;;;23.08;45.90;98871.78;5018918;28;20487;-59
2022/05/10 12:07:55;;;;;;;8.02;4.70;;;;;;;23.19;46.84;98871.06;5022857;28;20064;-59